Time;durP1;ratioP1;P1;durP2;ratioP2;P2;SDS_P1;SDS_P2;PMS_P1;PMS_P2;Temp;Humidity;BMP_temperature;BMP_pressure;BME280_temperature;BME280_humidity;BME280_pressure;Samples;Min_cycle;Max_cycle;Signal;HPM_P1;HPM_P2
2021/12/14 00:00:34;;;;;;;0.98;0.98;;;;;;;2.58;81.46;96685.81;5093806;28;20466;-67
2021/12/14 00:03:01;;;;;;;0.90;0.90;;;;;;;2.65;81.68;96682.38;5093854;28;20039;-65
2021/12/14 00:05:29;;;;;;;1.23;1.15;;;;;;;2.74;81.93;96682.31;5093679;28;20024;-65
2021/12/14 00:07:57;;;;;;;2.15;1.42;;;;;;;2.80;81.33;96689.16;5093556;28;20476;-67
2021/12/14 00:13:08;;;;;;;1.25;1.15;;;;;;;2.92;81.68;96698.56;5093644;28;20066;-66
2021/12/14 00:15:34;;;;;;;1.30;1.20;;;;;;;2.90;81.22;96698.63;5092979;28;20028;-70
2021/12/14 00:18:04;;;;;;;1.35;1.20;;;;;;;2.90;81.38;96701.19;5093523;28;20027;-65
2021/12/14 00:20:39;;;;;;;1.67;0.98;;;;;;;2.92;81.56;96702.91;5093166;28;20083;-67
2021/12/14 00:25:41;;;;;;;0.98;0.98;;;;;;;2.99;81.25;96702.88;5093424;28;20374;-69
2021/12/14 00:28:14;;;;;;;1.52;1.20;;;;;;;3.03;81.42;96703.69;5093453;28;20028;-67
2021/12/14 00:30:42;;;;;;;1.35;1.25;;;;;;;3.03;81.00;96701.97;5093357;28;20095;-64
2021/12/14 00:33:12;;;;;;;1.38;1.27;;;;;;;3.05;81.06;96704.56;5093209;28;20027;-65
2021/12/14 00:35:38;;;;;;;1.77;1.52;;;;;;;3.05;80.82;96712.31;5093173;28;20036;-64
2021/12/14 00:38:04;;;;;;;1.67;1.30;;;;;;;3.09;81.18;96710.56;5093362;28;20358;-67
2021/12/14 00:40:38;;;;;;;8.10;1.80;;;;;;;3.09;80.93;96705.38;5093273;28;20020;-68
2021/12/14 00:43:05;;;;;;;1.10;1.00;;;;;;;3.08;80.64;96709.72;5093335;28;20052;-65
2021/12/14 00:45:33;;;;;;;1.20;1.10;;;;;;;3.09;80.83;96706.25;5093053;28;20478;-63
2021/12/14 00:47:59;;;;;;;1.92;1.23;;;;;;;3.10;80.71;96713.13;5093161;28;20032;-65
2021/12/14 00:50:28;;;;;;;1.42;1.23;;;;;;;3.08;80.55;96708.84;5093227;28;20101;-67
2021/12/14 00:52:54;;;;;;;0.90;0.90;;;;;;;3.05;80.77;96709.72;5093093;28;20024;-68
2021/12/14 00:55:28;;;;;;;1.00;1.00;;;;;;;3.02;80.80;96712.34;5092966;28;20024;-67
2021/12/14 00:57:54;;;;;;;1.35;1.10;;;;;;;3.05;80.80;96717.50;5093110;28;20032;-69
2021/12/14 01:00:25;;;;;;;1.33;1.23;;;;;;;3.08;80.97;96714.88;5093104;28;20044;-69
2021/12/14 01:02:51;;;;;;;0.80;0.80;;;;;;;3.12;80.59;96723.47;5093081;28;20063;-66
2021/12/14 01:05:24;;;;;;;0.80;0.80;;;;;;;3.05;80.34;96721.78;5093007;28;20059;-70
2021/12/14 01:07:50;;;;;;;2.63;1.08;;;;;;;3.03;80.22;96725.25;5092959;28;20059;-65
2021/12/14 01:10:50;;;;;;;2.50;1.15;;;;;;;3.02;80.28;96714.91;5092909;28;20024;-67
2021/12/14 01:13:19;;;;;;;2.00;1.00;;;;;;;3.08;80.49;96717.47;5072450;28;20093;-71
2021/12/14 01:21:02;;;;;;;1.10;1.00;;;;;;;3.12;79.74;96720.88;5092611;28;20048;-65
2021/12/14 01:23:34;;;;;;;0.88;0.88;;;;;;;3.14;79.70;96721.75;5092958;28;20032;-68
2021/12/14 01:26:07;;;;;;;0.85;0.85;;;;;;;3.16;79.17;96720.00;5094178;28;20024;-68
2021/12/14 01:28:34;;;;;;;1.48;0.90;;;;;;;3.15;78.57;96726.03;5096779;28;20553;-65
2021/12/14 01:31:24;;;;;;;0.82;0.82;;;;;;;3.16;79.06;96727.75;5096560;28;20049;-67
2021/12/14 01:33:54;;;;;;;1.77;1.17;;;;;;;3.19;78.97;96719.97;5096635;28;20161;-68
2021/12/14 01:41:58;;;;;;;0.80;0.80;;;;;;;3.04;78.81;96728.66;5096467;28;20442;-68
2021/12/14 01:44:26;;;;;;;1.15;1.05;;;;;;;3.04;78.24;96720.91;5096285;28;20020;-65
2021/12/14 01:46:56;;;;;;;1.90;0.98;;;;;;;3.02;78.67;96733.00;5096168;28;20405;-67
2021/12/14 01:49:24;;;;;;;0.75;0.75;;;;;;;3.00;78.89;96719.22;5096357;28;20047;-67
2021/12/14 01:51:54;;;;;;;1.58;0.80;;;;;;;2.99;78.60;96730.44;5096205;28;20028;-65
2021/12/14 01:54:23;;;;;;;1.70;0.90;;;;;;;2.99;79.22;96726.13;5096151;28;20048;-68
2021/12/14 01:56:50;;;;;;;3.22;1.00;;;;;;;2.96;79.50;96727.88;5096142;28;20051;-68
2021/12/14 01:59:23;;;;;;;0.93;0.93;;;;;;;2.96;79.61;96720.09;5096172;28;20045;-69
2021/12/14 02:02:07;;;;;;;0.80;0.80;;;;;;;2.98;79.85;96729.56;5096066;28;20093;-66
2021/12/14 02:04:32;;;;;;;1.63;1.30;;;;;;;2.99;79.72;96733.88;5096040;28;20035;-67
2021/12/14 02:07:02;;;;;;;1.30;1.20;;;;;;;3.00;79.46;96732.16;5095769;28;20382;-67
2021/12/14 02:09:30;;;;;;;1.30;1.08;;;;;;;3.03;79.24;96732.13;5095858;28;20032;-67
2021/12/14 02:12:10;;;;;;;0.95;0.95;;;;;;;2.99;79.13;96728.72;5095947;28;20056;-68
2021/12/14 02:14:36;;;;;;;1.33;1.10;;;;;;;2.94;78.59;96735.63;5095862;28;20490;-64
2021/12/14 02:17:07;;;;;;;1.85;1.40;;;;;;;2.92;78.59;96731.34;5095796;28;20488;-65
2021/12/14 02:19:33;;;;;;;;;;;;;;;2.86;78.75;96724.47;5096273;28;20036;-65
2021/12/14 02:22:00;;;;;;;1.08;0.98;;;;;;;2.81;78.84;96729.66;5095539;28;20007;-69
2021/12/14 02:24:29;;;;;;;0.90;0.90;;;;;;;2.78;78.89;96722.78;5095516;28;20039;-62
2021/12/14 02:26:55;;;;;;;1.00;1.00;;;;;;;2.78;78.86;96727.09;5095498;28;20378;-70
2021/12/14 02:29:30;;;;;;;1.42;1.33;;;;;;;2.77;78.74;96720.19;5095498;28;20423;-69
2021/12/14 02:32:25;;;;;;;2.35;1.65;;;;;;;2.77;78.51;96727.97;5095434;28;20054;-66
2021/12/14 02:34:56;;;;;;;1.92;1.40;;;;;;;2.72;78.67;96730.56;5095089;28;20127;-63
2021/12/14 02:37:38;;;;;;;2.35;1.52;;;;;;;2.67;78.69;96736.59;5094752;28;20028;-69
2021/12/14 02:40:17;;;;;;;0.90;0.90;;;;;;;2.65;78.25;96734.88;5095484;28;20028;-67
2021/12/14 02:42:43;;;;;;;2.08;1.30;;;;;;;2.59;78.56;96739.22;5095184;28;20493;-65
2021/12/14 02:45:09;;;;;;;2.20;1.10;;;;;;;2.55;78.41;96727.16;5095187;28;20020;-69
2021/12/14 02:47:35;;;;;;;2.05;1.27;;;;;;;2.52;78.56;96739.22;5095055;28;20367;-67
2021/12/14 02:50:03;;;;;;;1.40;1.08;;;;;;;2.50;79.01;96733.19;5095251;28;20016;-66
2021/12/14 02:52:35;;;;;;;1.13;0.90;;;;;;;2.44;78.80;96728.03;5095093;28;20055;-66
2021/12/14 02:55:12;;;;;;;1.25;0.90;;;;;;;2.34;79.16;96731.50;5095104;28;20029;-70
2021/12/14 02:57:49;;;;;;;1.77;1.05;;;;;;;2.33;79.26;96729.78;5094887;28;20039;-65
2021/12/14 03:00:24;;;;;;;1.02;0.93;;;;;;;2.34;79.67;96727.22;5094891;28;20036;-65
2021/12/14 03:02:50;;;;;;;2.60;1.17;;;;;;;2.35;79.64;96728.91;5095095;28;20413;-66
2021/12/14 03:05:20;;;;;;;1.35;1.00;;;;;;;2.35;79.40;96728.09;5094889;28;20036;-66
2021/12/14 03:07:51;;;;;;;0.80;0.80;;;;;;;2.32;79.54;96726.34;5094636;28;20078;-66
2021/12/14 03:13:00;;;;;;;1.67;1.10;;;;;;;2.21;79.68;96725.50;5094785;28;20044;-65
2021/12/14 03:15:32;;;;;;;1.00;1.00;;;;;;;2.19;79.66;96727.22;5094628;28;20097;-69
2021/12/14 03:18:02;;;;;;;0.88;0.88;;;;;;;2.15;80.35;96728.97;5094641;28;20036;-69
2021/12/14 03:20:34;;;;;;;1.10;1.08;;;;;;;2.19;80.03;96730.69;5094282;28;20040;-66
2021/12/14 03:23:09;;;;;;;0.80;0.80;;;;;;;2.20;80.43;96729.81;5094414;28;20397;-68
2021/12/14 03:25:38;;;;;;;1.08;0.98;;;;;;;2.20;80.45;96732.38;5094405;28;20123;-69
2021/12/14 03:28:06;;;;;;;0.82;0.82;;;;;;;2.20;80.23;96729.81;5094379;28;20043;-69
2021/12/14 03:30:39;;;;;;;0.77;0.77;;;;;;;2.21;80.19;96736.72;5094193;28;20024;-65
2021/12/14 03:33:16;;;;;;;0.90;0.90;;;;;;;2.23;80.18;96734.97;5094261;28;20055;-69
2021/12/14 03:36:17;;;;;;;1.38;1.00;;;;;;;2.26;80.72;96734.97;5094116;28;20027;-66
2021/12/14 03:38:46;;;;;;;;;;;;;;;2.24;80.67;96728.97;5094568;28;20073;-68
2021/12/14 03:41:22;;;;;;;1.73;1.05;;;;;;;2.20;80.51;96734.97;5094009;28;20006;-68
2021/12/14 03:43:58;;;;;;;0.90;0.90;;;;;;;2.12;80.60;96736.72;5094093;28;20020;-68
2021/12/14 03:46:29;;;;;;;1.08;0.98;;;;;;;2.12;80.65;96745.31;5094089;28;20374;-69
2021/12/14 03:48:55;;;;;;;1.35;0.90;;;;;;;2.13;80.87;96743.59;5093444;28;20070;-67
2021/12/14 03:51:23;;;;;;;3.70;0.93;;;;;;;2.13;80.73;96735.84;5093749;28;20424;-66
2021/12/14 03:53:54;;;;;;;1.38;1.27;;;;;;;2.18;80.68;96746.16;5093897;28;20081;-65
2021/12/14 03:56:21;;;;;;;0.93;0.93;;;;;;;2.20;80.88;96740.13;5093806;28;20016;-64
2021/12/14 03:58:47;;;;;;;0.80;0.80;;;;;;;2.23;80.78;96750.47;5093769;28;20031;-67
2021/12/14 04:01:24;;;;;;;1.00;1.00;;;;;;;2.22;80.63;96745.28;5093844;28;20031;-65
2021/12/14 04:03:54;;;;;;;1.10;1.00;;;;;;;2.20;80.55;96753.03;5093831;28;20017;-63
2021/12/14 04:06:20;;;;;;;0.73;0.73;;;;;;;2.21;80.60;96756.50;5093651;28;20397;-62
2021/12/14 04:08:46;;;;;;;2.30;1.13;;;;;;;2.23;80.53;96757.38;5093546;28;20112;-65
2021/12/14 04:11:14;;;;;;;5.60;1.00;;;;;;;2.24;80.30;96767.69;5093571;28;20428;-69
2021/12/14 04:13:46;;;;;;;0.93;0.80;;;;;;;2.19;80.22;96760.78;5126462;27;20073;-68
2021/12/14 04:16:15;;;;;;;0.90;0.90;;;;;;;2.11;80.14;96753.06;5093637;28;20028;-66
2021/12/14 04:18:41;;;;;;;1.15;1.02;;;;;;;2.08;80.59;96765.97;5093473;28;20019;-63
2021/12/14 04:21:07;;;;;;;1.40;1.10;;;;;;;2.11;80.15;96758.22;5093175;28;20048;-67
2021/12/14 04:23:37;;;;;;;1.08;0.98;;;;;;;2.12;80.17;96771.16;5093382;28;20103;-68
2021/12/14 04:26:07;;;;;;;1.20;1.00;;;;;;;2.12;80.22;96767.69;5093461;28;20531;-69
2021/12/14 04:28:39;;;;;;;0.88;0.88;;;;;;;2.11;80.03;96764.25;5093537;28;20059;-63
2021/12/14 04:31:05;;;;;;;1.08;0.90;;;;;;;2.08;79.92;96765.97;5093370;28;20462;-66
2021/12/14 04:33:35;;;;;;;2.20;0.98;;;;;;;2.10;79.94;96764.25;5093292;28;20024;-66
2021/12/14 04:36:05;;;;;;;0.83;0.80;;;;;;;2.06;80.13;96776.31;5093368;28;20020;-67
2021/12/14 04:38:35;;;;;;;0.93;0.90;;;;;;;2.02;79.74;96775.44;5093322;28;20279;-69
2021/12/14 04:52:11;;;;;;;1.15;0.82;;;;;;;2.00;80.06;96782.34;5093450;28;20446;-67
2021/12/14 04:54:50;;;;;;;0.80;0.80;;;;;;;2.02;79.86;96782.34;5093031;28;20050;-65
2021/12/14 04:57:32;;;;;;;1.00;1.00;;;;;;;1.97;79.91;96790.06;5092984;28;20016;-68
2021/12/14 05:00:14;;;;;;;0.68;0.68;;;;;;;1.94;80.10;96792.66;5093228;28;20089;-67
2021/12/14 05:02:41;;;;;;;0.90;0.90;;;;;;;1.96;80.23;96777.16;5097334;28;20070;-66
2021/12/14 05:05:07;;;;;;;1.38;0.70;;;;;;;1.97;80.26;96784.91;5097158;28;20031;-66
2021/12/14 05:10:06;;;;;;;0.90;0.90;;;;;;;1.96;79.77;96788.31;5097251;28;20031;-63
2021/12/14 05:12:34;;;;;;;0.85;0.85;;;;;;;1.95;79.81;96786.63;5097056;28;20027;-67
2021/12/14 05:15:05;;;;;;;0.70;0.70;;;;;;;1.96;79.90;96792.66;5096933;28;20043;-71
2021/12/14 05:17:34;;;;;;;1.25;0.80;;;;;;;1.98;79.73;96793.50;5095899;28;20028;-66
2021/12/14 05:20:00;;;;;;;0.90;0.80;;;;;;;1.95;79.99;96789.19;5096828;28;20024;-68
2021/12/14 05:22:32;;;;;;;4.40;0.85;;;;;;;1.94;79.71;96791.78;5096575;28;20409;-69
2021/12/14 05:25:04;;;;;;;1.00;1.00;;;;;;;1.95;79.99;96783.16;5096720;28;20032;-66
2021/12/14 05:27:43;;;;;;;1.48;0.85;;;;;;;1.94;80.22;96791.78;5096727;28;20028;-68
2021/12/14 05:30:22;;;;;;;1.30;1.20;;;;;;;1.96;79.97;96797.81;5096699;28;20024;-68
2021/12/14 05:32:48;;;;;;;0.95;0.85;;;;;;;1.93;79.84;96796.09;5096566;28;20493;-67
2021/12/14 05:35:18;;;;;;;0.90;0.80;;;;;;;1.92;79.80;96802.09;5096499;28;20027;-66
2021/12/14 05:37:51;;;;;;;0.85;0.85;;;;;;;1.92;79.96;96814.16;5096559;28;20020;-67
2021/12/14 05:43:11;;;;;;;1.15;0.98;;;;;;;1.79;80.08;96815.84;5096507;28;20066;-63
2021/12/14 05:46:13;;;;;;;1.02;1.02;;;;;;;1.82;80.55;96813.28;5096426;28;20028;-67
2021/12/14 05:49:13;;;;;;;0.70;0.70;;;;;;;1.82;80.40;96811.56;5096369;28;20032;-66
2021/12/14 05:52:32;;;;;;;0.80;0.80;;;;;;;1.78;80.20;96812.41;5096688;28;20099;-67
2021/12/14 05:55:02;;;;;;;1.27;1.13;;;;;;;1.77;80.69;96808.97;5073675;28;20056;-65
2021/12/14 05:57:33;;;;;;;0.85;0.85;;;;;;;1.77;80.24;96808.97;5073654;28;20068;-67
2021/12/14 06:00:05;;;;;;;;;;;;;;;1.76;80.36;96812.41;5074105;28;20760;-66
2021/12/14 06:02:54;;;;;;;0.82;0.82;;;;;;;1.73;80.49;96816.69;5073645;28;20274;-70
2021/12/14 06:05:50;;;;;;;1.20;1.10;;;;;;;1.71;80.89;96816.69;5073524;28;20037;-64
2021/12/14 06:08:41;;;;;;;5.57;1.70;;;;;;;1.77;80.77;96818.41;5033460;28;20053;-69
2021/12/14 06:11:37;;;;;;;1.23;1.13;;;;;;;1.76;81.02;96817.56;5033273;28;20135;-68
2021/12/14 06:14:41;;;;;;;0.90;0.90;;;;;;;1.76;80.76;96819.28;5017619;28;20053;-65
2021/12/14 06:17:26;;;;;;;1.27;1.17;;;;;;;1.72;80.85;96813.25;5032697;28;20144;-66
2021/12/14 06:20:18;;;;;;;4.43;1.00;;;;;;;1.71;81.08;96816.69;5033419;28;20402;-61
2021/12/14 06:23:02;;;;;;;9.07;8.03;;;;;;;1.72;81.38;96815.00;5017721;28;20048;-66
2021/12/14 06:25:57;;;;;;;8.30;7.50;;;;;;;1.74;81.30;96813.25;5033409;28;20039;-65
2021/12/14 06:28:28;;;;;;;3.42;3.13;;;;;;;1.74;81.47;96808.97;5033428;28;20079;-66
2021/12/14 06:30:55;;;;;;;2.58;2.38;;;;;;;1.79;81.77;96808.09;5033472;28;20154;-66
2021/12/14 06:33:21;;;;;;;2.55;2.10;;;;;;;1.79;81.50;96810.69;5033080;28;20049;-66
2021/12/14 06:35:53;;;;;;;1.75;1.65;;;;;;;1.84;81.39;96811.56;5033093;28;20026;-65
2021/12/14 06:38:29;;;;;;;1.38;1.27;;;;;;;1.86;81.17;96808.13;5049502;28;20482;-66
2021/12/14 06:41:03;;;;;;;1.33;1.23;;;;;;;1.92;81.28;96803.84;5072987;28;20031;-67
2021/12/14 06:43:52;;;;;;;3.83;1.23;;;;;;;2.00;81.34;96813.31;5072908;28;20037;-70
2021/12/14 06:46:23;;;;;;;1.38;1.27;;;;;;;1.99;80.43;96813.28;5072741;28;20549;-65
2021/12/14 06:48:52;;;;;;;1.50;1.40;;;;;;;2.01;80.49;96816.72;5072898;28;20035;-65
2021/12/14 06:51:22;;;;;;;1.50;1.40;;;;;;;2.03;80.53;96809.84;5077170;28;20570;-63
2021/12/14 06:53:54;;;;;;;1.55;0.98;;;;;;;2.07;80.47;96813.28;5095058;28;20028;-67
2021/12/14 06:56:24;;;;;;;1.10;1.00;;;;;;;2.05;80.41;96815.88;5095125;28;20028;-68
2021/12/14 06:59:01;;;;;;;0.90;0.90;;;;;;;2.02;80.21;96819.31;5094961;28;20073;-68
2021/12/14 07:01:36;;;;;;;2.03;1.25;;;;;;;2.04;80.50;96818.47;5127798;27;20036;-68
2021/12/14 07:04:07;;;;;;;1.13;1.10;;;;;;;2.05;80.77;96817.59;5093695;28;20391;-69
2021/12/14 07:06:40;;;;;;;1.10;1.00;;;;;;;2.06;81.02;96821.88;5094811;28;20030;-68
2021/12/14 07:09:12;;;;;;;0.80;0.80;;;;;;;2.09;80.64;96819.31;5094714;28;20036;-63
2021/12/14 07:11:41;;;;;;;0.80;0.80;;;;;;;2.09;80.86;96819.31;5094733;28;20016;-68
2021/12/14 07:14:20;;;;;;;1.42;1.23;;;;;;;1.98;80.65;96822.75;5094709;28;20040;-67
2021/12/14 07:16:47;;;;;;;1.10;1.00;;;;;;;1.97;80.45;96823.63;5094723;28;20141;-66
2021/12/14 07:19:13;;;;;;;0.98;0.88;;;;;;;2.05;80.56;96826.22;5094647;28;20028;-70
2021/12/14 07:21:45;;;;;;;1.20;1.10;;;;;;;2.02;81.19;96818.47;5094169;28;20048;-68
2021/12/14 07:24:30;;;;;;;1.40;1.30;;;;;;;2.07;81.35;96821.88;5094326;28;20028;-68
2021/12/14 07:27:20;;;;;;;1.13;1.00;;;;;;;2.12;81.48;96827.94;5094445;28;20081;-66
2021/12/14 07:29:47;;;;;;;1.17;1.08;;;;;;;2.14;80.99;96830.50;5094425;28;20028;-67
2021/12/14 07:32:14;;;;;;;1.00;1.00;;;;;;;2.07;79.41;96828.75;5094359;28;20044;-67
2021/12/14 07:34:39;;;;;;;0.80;0.80;;;;;;;1.93;80.28;96837.38;5094298;28;20085;-64
2021/12/14 07:37:05;;;;;;;1.95;0.95;;;;;;;1.98;79.58;96839.94;5094210;28;20061;-69
2021/12/14 07:39:31;;;;;;;1.00;0.90;;;;;;;1.93;79.80;96839.97;5094123;28;20363;-68
2021/12/14 07:41:59;;;;;;;1.30;1.20;;;;;;;2.00;80.45;96848.56;5094223;28;20416;-65
2021/12/14 07:44:34;;;;;;;1.10;1.00;;;;;;;2.01;80.22;96848.56;5094057;28;20466;-64
2021/12/14 07:47:04;;;;;;;1.95;1.10;;;;;;;2.09;80.33;96850.28;5094010;28;20024;-66
2021/12/14 07:49:54;;;;;;;;;;;;;;;2.01;80.14;96858.88;5094542;28;20028;-63
2021/12/14 07:52:22;;;;;;;1.27;1.17;;;;;;;1.98;80.72;96856.28;5094044;28;19986;-69
2021/12/14 07:54:58;;;;;;;1.25;1.15;;;;;;;1.99;80.25;96864.91;5094088;28;20024;-66
2021/12/14 07:57:36;;;;;;;0.95;0.95;;;;;;;2.01;80.53;96858.00;5093781;28;20032;-65
2021/12/14 08:00:16;;;;;;;1.25;0.80;;;;;;;2.09;80.80;96858.91;5093814;28;20024;-65
2021/12/14 08:02:45;;;;;;;1.10;1.00;;;;;;;2.14;80.60;96861.50;5093833;28;20030;-67
2021/12/14 08:05:23;;;;;;;1.35;1.00;;;;;;;2.20;80.62;96871.78;5093833;28;20020;-68
2021/12/14 08:07:55;;;;;;;3.58;1.30;;;;;;;2.22;80.32;96864.06;5093763;28;20122;-63
2021/12/14 08:10:25;;;;;;;1.05;0.90;;;;;;;2.24;79.92;96873.53;5093664;28;20016;-69
2021/12/14 08:12:52;;;;;;;;;;;;;;;2.30;80.29;96879.56;5094265;28;20525;-65
2021/12/14 08:15:24;;;;;;;17.73;8.40;;;;;;;2.35;80.19;96883.84;5093583;28;19912;-64
2021/12/14 08:18:05;;;;;;;14.15;4.35;;;;;;;2.41;80.47;96883.00;5093706;28;20066;-66
2021/12/14 08:20:30;;;;;;;;;;;;;;;2.48;80.84;96887.31;5093719;28;20052;-67
2021/12/14 08:23:09;;;;;;;7.82;4.22;;;;;;;2.49;80.63;96891.59;5093498;28;19923;-67
2021/12/14 08:25:34;;;;;;;5.30;3.47;;;;;;;2.52;80.65;96891.59;5093518;28;20054;-66
2021/12/14 08:28:05;;;;;;;2.95;2.40;;;;;;;2.54;80.08;96889.03;5093552;28;20032;-64
2021/12/14 08:30:34;;;;;;;6.32;4.72;;;;;;;2.52;79.80;96898.50;5093435;28;20108;-69
2021/12/14 08:33:00;;;;;;;7.20;5.25;;;;;;;2.49;79.65;96894.19;5093260;28;20059;-67
2021/12/14 08:35:27;;;;;;;5.05;3.58;;;;;;;2.53;79.49;96895.06;5092635;28;20466;-66
2021/12/14 08:37:58;;;;;;;4.38;3.50;;;;;;;2.60;79.47;96888.16;5093431;28;20133;-68
2021/12/14 08:40:52;;;;;;;10.18;8.55;;;;;;;2.63;79.69;96896.78;5093436;28;20028;-63
2021/12/14 08:43:26;;;;;;;8.80;6.30;;;;;;;2.65;79.80;96889.03;5091024;28;20128;-68
2021/12/14 08:45:58;;;;;;;7.72;6.30;;;;;;;2.71;79.58;96893.31;5093151;28;20036;-66
2021/12/14 08:48:38;;;;;;;6.60;4.85;;;;;;;2.69;79.80;96887.28;5093374;28;20032;-62
2021/12/14 08:51:24;;;;;;;12.60;8.07;;;;;;;2.65;79.78;96884.69;5093220;28;20027;-68
2021/12/14 08:54:09;;;;;;;11.57;8.48;;;;;;;2.69;79.55;96880.41;5093336;28;20028;-66
2021/12/14 08:56:40;;;;;;;5.93;3.10;;;;;;;2.73;79.51;96876.94;5093078;28;20422;-62
2021/12/14 08:59:07;;;;;;;2.90;2.70;;;;;;;2.75;79.40;96880.41;5093085;28;20062;-63
2021/12/14 09:01:35;;;;;;;6.80;4.55;;;;;;;2.80;79.31;96872.63;5092958;28;20415;-67
2021/12/14 09:04:08;;;;;;;9.55;7.45;;;;;;;2.84;79.29;96860.56;5093060;28;20110;-65
2021/12/14 09:06:38;;;;;;;13.77;8.57;;;;;;;2.76;79.05;96868.31;5093178;28;20060;-70
2021/12/14 09:09:08;;;;;;;6.80;5.40;;;;;;;2.72;79.13;96864.91;5092817;28;20477;-70
2021/12/14 09:11:36;;;;;;;6.78;4.85;;;;;;;2.73;79.25;96856.28;5092950;28;20041;-66
2021/12/14 09:14:05;;;;;;;11.70;7.10;;;;;;;2.72;79.29;96857.16;5092983;28;20114;-65
2021/12/14 09:16:32;;;;;;;11.27;7.07;;;;;;;2.71;79.91;96860.56;5093008;28;20457;-64
2021/12/14 09:19:07;;;;;;;10.88;7.78;;;;;;;2.68;80.00;96857.16;5093026;28;20036;-63
2021/12/14 09:21:37;;;;;;;6.32;4.40;;;;;;;2.65;79.73;96847.69;5092681;28;20044;-64
2021/12/14 09:24:08;;;;;;;3.63;2.53;;;;;;;2.65;79.86;96850.28;5092852;28;20385;-67
2021/12/14 09:26:40;;;;;;;4.75;2.15;;;;;;;2.66;80.00;96844.25;5092794;28;20039;-70
2021/12/14 09:29:09;;;;;;;3.17;2.67;;;;;;;2.70;79.95;96845.06;5092906;28;20493;-66
2021/12/14 09:31:39;;;;;;;5.60;3.35;;;;;;;2.69;80.02;96844.25;5092886;28;20492;-67
2021/12/14 09:34:06;;;;;;;3.50;2.42;;;;;;;2.72;79.19;96846.81;5092683;28;20390;-68
2021/12/14 09:36:32;;;;;;;2.53;2.15;;;;;;;2.76;78.56;96837.31;5092845;28;20353;-70
2021/12/14 09:39:06;;;;;;;2.13;1.70;;;;;;;2.75;78.78;96840.78;5092795;28;20428;-66
2021/12/14 09:41:33;;;;;;;1.73;1.50;;;;;;;2.76;78.77;96832.16;5092709;28;20025;-68
2021/12/14 09:44:04;;;;;;;1.50;1.40;;;;;;;2.79;78.81;96832.16;5092719;28;20020;-70
2021/12/14 09:46:31;;;;;;;2.17;1.38;;;;;;;2.82;78.70;96828.69;5093197;28;20036;-68
2021/12/14 09:49:01;;;;;;;1.65;1.40;;;;;;;2.86;78.73;96827.84;5096404;28;20020;-67
2021/12/14 09:51:38;;;;;;;2.60;1.42;;;;;;;2.88;79.42;96824.38;5096414;28;20398;-69
2021/12/14 09:54:07;;;;;;;1.38;0.90;;;;;;;2.83;78.52;96820.09;5096296;28;20117;-66
2021/12/14 09:56:37;;;;;;;2.17;1.30;;;;;;;2.85;78.74;96818.34;5096333;28;20017;-68
2021/12/14 09:59:07;;;;;;;3.45;1.10;;;;;;;2.86;78.44;96825.25;5096236;28;20410;-69
2021/12/14 10:01:41;;;;;;;4.78;1.10;;;;;;;2.89;78.96;96825.25;5096190;28;20039;-63
2021/12/14 10:04:14;;;;;;;1.08;0.98;;;;;;;2.90;79.14;96817.50;5096126;28;20024;-67
2021/12/14 10:06:40;;;;;;;1.77;1.35;;;;;;;2.85;78.58;96810.59;5096000;28;20477;-67
2021/12/14 10:09:10;;;;;;;2.20;1.55;;;;;;;2.74;79.93;96813.22;5095854;28;20423;-65
2021/12/14 10:11:48;;;;;;;1.50;1.40;;;;;;;2.79;80.04;96811.47;5095869;28;20461;-68
2021/12/14 10:14:18;;;;;;;1.40;1.13;;;;;;;2.76;78.63;96814.94;5095830;28;20055;-67
2021/12/14 10:16:45;;;;;;;1.17;1.08;;;;;;;2.78;78.99;96820.97;5095945;28;20382;-63
2021/12/14 10:19:15;;;;;;;1.20;1.10;;;;;;;2.87;79.46;96819.22;5095818;28;20074;-64
2021/12/14 10:21:45;;;;;;;1.83;1.30;;;;;;;2.84;79.69;96814.91;5095365;28;20048;-70
2021/12/14 10:24:11;;;;;;;0.98;0.95;;;;;;;2.90;79.52;96816.63;5095741;28;20032;-62
2021/12/14 10:26:41;;;;;;;1.75;1.35;;;;;;;2.97;79.72;96812.28;5094326;28;20028;-67
2021/12/14 10:29:09;;;;;;;0.95;0.95;;;;;;;3.02;78.66;96807.97;5095645;28;20078;-67
2021/12/14 10:31:59;;;;;;;1.13;1.02;;;;;;;3.06;79.22;96816.56;5095507;28;20027;-65
2021/12/14 10:34:28;;;;;;;0.95;0.95;;;;;;;3.11;79.11;96820.00;5095482;28;20031;-62
2021/12/14 10:37:09;;;;;;;3.15;2.30;;;;;;;3.09;79.61;96809.66;5095415;28;20032;-67
2021/12/14 10:39:40;;;;;;;;;;;;;;;2.98;80.87;96807.09;5096064;28;20103;-68
2021/12/14 10:44:54;;;;;;;1.50;1.40;;;;;;;3.06;78.83;96808.81;5095652;28;19919;-67
2021/12/14 10:47:24;;;;;;;2.85;2.05;;;;;;;3.03;79.40;96807.97;5095024;28;20469;-67
2021/12/14 10:49:51;;;;;;;2.33;1.50;;;;;;;3.08;78.73;96807.94;5095179;28;20032;-66
2021/12/14 10:52:23;;;;;;;1.95;1.45;;;;;;;3.13;79.03;96808.78;5094031;28;20020;-67
2021/12/14 10:55:04;;;;;;;2.50;1.63;;;;;;;3.20;79.11;96798.41;5095238;28;20032;-68
2021/12/14 10:57:33;;;;;;;1.40;1.30;;;;;;;3.24;78.76;96797.53;5095059;28;20020;-68
2021/12/14 11:00:00;;;;;;;2.78;1.13;;;;;;;3.27;77.97;96798.38;5094432;28;20042;-68
2021/12/14 11:02:27;;;;;;;1.23;1.00;;;;;;;3.31;78.39;96790.63;5094921;28;20048;-65
2021/12/14 11:04:58;;;;;;;0.70;0.70;;;;;;;3.34;77.53;96793.19;5094887;28;20470;-69
2021/12/14 11:07:29;;;;;;;2.35;1.48;;;;;;;3.29;78.56;96778.53;5094884;28;20028;-67
2021/12/14 11:10:04;;;;;;;;;;;;;;;3.40;79.33;96781.06;5095113;28;20031;-64
2021/12/14 11:12:38;;;;;;;1.48;1.38;;;;;;;3.47;78.86;96778.44;5094786;28;19964;-67
2021/12/14 11:15:26;;;;;;;2.05;1.55;;;;;;;3.53;76.80;96774.09;5094748;28;20028;-64
2021/12/14 11:18:08;;;;;;;2.40;1.77;;;;;;;3.62;77.86;96773.19;5094819;28;20020;-64
2021/12/14 11:21:02;;;;;;;6.00;2.58;;;;;;;3.69;79.28;96775.72;5094432;28;20052;-64
2021/12/14 11:23:33;;;;;;;3.97;2.92;;;;;;;3.77;79.63;96776.53;5094499;28;20397;-65
2021/12/14 11:26:07;;;;;;;4.90;3.38;;;;;;;3.80;79.46;96771.34;5094466;28;20032;-65
2021/12/14 11:28:51;;;;;;;2.47;2.28;;;;;;;3.72;79.69;96773.97;5094498;28;20046;-63
2021/12/14 11:31:25;;;;;;;2.50;1.90;;;;;;;3.80;79.77;96768.75;5094645;28;20024;-64
2021/12/14 11:34:08;;;;;;;2.15;1.95;;;;;;;3.84;79.41;96774.75;5094334;28;20024;-69
2021/12/14 11:36:39;;;;;;;2.30;1.92;;;;;;;3.91;80.02;96771.25;5094340;28;20031;-66
2021/12/14 11:39:07;;;;;;;2.30;1.77;;;;;;;3.96;80.07;96777.25;5094213;28;20027;-67
2021/12/14 11:41:41;;;;;;;1.77;1.67;;;;;;;3.93;79.83;96777.28;5094201;28;20085;-66
2021/12/14 11:44:31;;;;;;;1.95;1.45;;;;;;;3.98;78.78;96778.13;5094192;28;20059;-62
2021/12/14 11:47:00;;;;;;;1.80;1.33;;;;;;;3.95;76.33;96774.69;5093972;28;20039;-67
2021/12/14 11:49:54;;;;;;;0.95;0.90;;;;;;;3.88;74.17;96776.44;5094153;28;20267;-64
2021/12/14 11:52:38;;;;;;;0.60;0.60;;;;;;;3.66;71.03;96779.19;5094148;28;20067;-68
2021/12/14 11:55:21;;;;;;;0.80;0.80;;;;;;;3.53;73.75;96786.19;5094066;28;20032;-64
2021/12/14 11:57:48;;;;;;;1.27;0.90;;;;;;;3.52;72.99;96785.31;5093858;28;20024;-65
2021/12/14 12:00:22;;;;;;;0.70;0.70;;;;;;;3.53;72.17;96788.78;5093915;28;20027;-64
2021/12/14 12:02:48;;;;;;;0.50;0.50;;;;;;;3.41;72.65;96777.59;5093857;28;20102;-62
2021/12/14 12:05:27;;;;;;;0.73;0.65;;;;;;;3.45;74.15;96780.19;5093839;28;20119;-65
2021/12/14 12:10:49;;;;;;;0.60;0.60;;;;;;;3.43;73.34;96771.59;5092902;28;20063;-67
2021/12/14 12:13:15;;;;;;;1.00;0.77;;;;;;;3.42;72.77;96773.31;5093729;28;20067;-64
2021/12/14 12:15:43;;;;;;;0.70;0.70;;;;;;;3.47;73.72;96776.72;5093672;28;20043;-65
2021/12/14 12:18:10;;;;;;;0.65;0.65;;;;;;;3.54;73.14;96775.81;5093605;28;20047;-65
2021/12/14 12:20:41;;;;;;;0.73;0.73;;;;;;;3.61;74.86;96781.81;5093311;28;20121;-67
2021/12/14 12:23:06;;;;;;;1.15;0.88;;;;;;;3.66;74.52;96784.38;5093645;28;20078;-66
2021/12/14 12:25:42;;;;;;;0.80;0.80;;;;;;;3.71;73.65;96784.34;5093484;28;20478;-64
2021/12/14 12:28:15;;;;;;;0.77;0.77;;;;;;;3.79;75.25;96782.53;5093415;28;20035;-67
2021/12/14 12:30:55;;;;;;;3.65;2.75;;;;;;;3.87;75.76;96785.97;5093572;28;20358;-67
2021/12/14 12:33:28;;;;;;;2.17;1.85;;;;;;;3.93;77.26;96785.03;5093368;28;20024;-68
2021/12/14 12:36:19;;;;;;;1.33;1.23;;;;;;;3.94;78.31;96781.56;5093464;28;20103;-68
2021/12/14 12:39:05;;;;;;;1.30;1.15;;;;;;;3.97;73.35;96776.38;5093270;28;20032;-64
2021/12/14 12:41:51;;;;;;;0.73;0.73;;;;;;;3.94;74.11;96786.75;5093457;28;20051;-65
2021/12/14 12:44:31;;;;;;;0.80;0.80;;;;;;;3.92;74.28;96784.16;5093468;28;20020;-65
2021/12/14 12:46:59;;;;;;;0.80;0.70;;;;;;;3.95;72.57;96785.03;5093204;28;20470;-70
2021/12/14 12:49:31;;;;;;;0.77;0.77;;;;;;;4.05;71.40;96789.28;5093132;28;20079;-66
2021/12/14 12:52:03;;;;;;;0.80;0.75;;;;;;;3.95;70.99;96785.03;5093330;28;20032;-68